sensor_id;sensor_type;location;lat;lon;timestamp;pressure;altitude;pressure_sealevel;temperature;humidity
13434;BME280;6789;47.678;9.158;2022-11-27T00:03:06;97909.06;;;3.43;100.00
13434;BME280;6789;47.678;9.158;2022-11-27T00:08:12;97903.88;;;3.43;100.00
13434;BME280;6789;47.678;9.158;2022-11-27T00:13:18;97907.34;;;3.52;100.00
13434;BME280;6789;47.678;9.158;2022-11-27T00:18:25;97906.50;;;3.51;100.00
13434;BME280;6789;47.678;9.158;2022-11-27T00:23:33;97896.75;;;3.45;100.00
13434;BME280;6789;47.678;9.158;2022-11-27T00:28:51;97891.56;;;3.45;100.00
13434;BME280;6789;47.678;9.158;2022-11-27T00:34:04;97900.34;;;3.52;100.00
13434;BME280;6789;47.678;9.158;2022-11-27T00:39:12;97914.75;;;3.47;100.00
13434;BME280;6789;47.678;9.158;2022-11-27T00:44:44;97909.25;;;3.50;100.00
13434;BME280;6789;47.678;9.158;2022-11-27T00:49:50;97914.63;;;3.31;100.00
13434;BME280;6789;47.678;9.158;2022-11-27T00:54:56;97900.50;;;3.25;100.00
13434;BME280;6789;47.678;9.158;2022-11-27T01:00:04;97881.75;;;3.31;100.00
13434;BME280;6789;47.678;9.158;2022-11-27T01:05:18;97862.59;;;3.24;100.00
13434;BME280;6789;47.678;9.158;2022-11-27T01:10:49;97855.25;;;2.94;100.00
13434;BME280;6789;47.678;9.158;2022-11-27T01:16:45;97844.03;;;2.94;100.00
13434;BME280;6789;47.678;9.158;2022-11-27T01:21:42;97849.53;;;2.91;100.00
13434;BME280;6789;47.678;9.158;2022-11-27T01:26:48;97836.19;;;3.03;100.00
13434;BME280;6789;47.678;9.158;2022-11-27T01:31:54;97832.63;;;3.04;100.00
13434;BME280;6789;47.678;9.158;2022-11-27T01:37:01;97833.00;;;3.09;100.00
13434;BME280;6789;47.678;9.158;2022-11-27T01:42:10;97831.28;;;3.18;100.00
13434;BME280;6789;47.678;9.158;2022-11-27T01:47:30;97832.38;;;3.15;100.00
13434;BME280;6789;47.678;9.158;2022-11-27T01:52:46;97824.31;;;3.18;100.00
13434;BME280;6789;47.678;9.158;2022-11-27T01:58:18;97832.38;;;3.15;100.00
13434;BME280;6789;47.678;9.158;2022-11-27T02:03:28;97828.47;;;3.11;100.00
13434;BME280;6789;47.678;9.158;2022-11-27T02:08:35;97829.03;;;2.97;100.00
13434;BME280;6789;47.678;9.158;2022-11-27T02:13:54;97823.06;;;2.62;100.00
13434;BME280;6789;47.678;9.158;2022-11-27T02:19:22;97814.16;;;2.65;100.00
13434;BME280;6789;47.678;9.158;2022-11-27T02:30:15;97804.41;;;2.59;100.00
13434;BME280;6789;47.678;9.158;2022-11-27T02:35:30;97808.94;;;2.57;100.00
13434;BME280;6789;47.678;9.158;2022-11-27T02:40:31;97805.69;;;2.55;100.00
13434;BME280;6789;47.678;9.158;2022-11-27T02:45:51;97803.97;;;2.63;100.00
13434;BME280;6789;47.678;9.158;2022-11-27T02:50:57;97797.09;;;2.72;100.00
13434;BME280;6789;47.678;9.158;2022-11-27T02:56:09;97796.06;;;2.65;100.00
13434;BME280;6789;47.678;9.158;2022-11-27T03:01:19;97798.50;;;2.66;100.00
13434;BME280;6789;47.678;9.158;2022-11-27T03:06:39;97802.56;;;2.69;100.00
13434;BME280;6789;47.678;9.158;2022-11-27T03:11:35;97792.50;;;2.83;100.00
13434;BME280;6789;47.678;9.158;2022-11-27T03:21:52;97798.97;;;3.04;100.00
13434;BME280;6789;47.678;9.158;2022-11-27T03:27:05;97797.34;;;3.03;100.00
13434;BME280;6789;47.678;9.158;2022-11-27T03:31:57;97796.72;;;3.09;100.00
13434;BME280;6789;47.678;9.158;2022-11-27T03:36:48;97784.72;;;3.08;100.00
13434;BME280;6789;47.678;9.158;2022-11-27T03:42:08;97777.31;;;3.13;100.00
13434;BME280;6789;47.678;9.158;2022-11-27T03:47:34;97783.22;;;3.23;100.00
13434;BME280;6789;47.678;9.158;2022-11-27T03:52:51;97777.72;;;3.26;100.00
13434;BME280;6789;47.678;9.158;2022-11-27T04:02:50;97775.00;;;3.28;100.00
13434;BME280;6789;47.678;9.158;2022-11-27T04:07:42;97779.06;;;3.30;100.00
13434;BME280;6789;47.678;9.158;2022-11-27T04:12:35;97772.81;;;3.49;100.00
13434;BME280;6789;47.678;9.158;2022-11-27T04:17:27;97767.19;;;3.53;100.00
13434;BME280;6789;47.678;9.158;2022-11-27T04:22:18;97774.66;;;3.56;100.00
13434;BME280;6789;47.678;9.158;2022-11-27T04:27:10;97763.16;;;3.58;100.00
13434;BME280;6789;47.678;9.158;2022-11-27T04:32:03;97767.56;;;3.66;100.00
13434;BME280;6789;47.678;9.158;2022-11-27T04:36:55;97761.44;;;3.75;100.00
13434;BME280;6789;47.678;9.158;2022-11-27T04:41:47;97767.91;;;3.71;100.00
13434;BME280;6789;47.678;9.158;2022-11-27T04:46:39;97756.91;;;3.77;100.00
13434;BME280;6789;47.678;9.158;2022-11-27T04:51:31;97759.81;;;3.82;100.00
13434;BME280;6789;47.678;9.158;2022-11-27T04:56:23;97764.72;;;3.85;100.00
13434;BME280;6789;47.678;9.158;2022-11-27T05:01:14;97766.63;;;3.83;100.00
13434;BME280;6789;47.678;9.158;2022-11-27T05:06:11;97776.06;;;3.84;100.00
13434;BME280;6789;47.678;9.158;2022-11-27T05:11:11;97775.13;;;4.01;100.00
13434;BME280;6789;47.678;9.158;2022-11-27T05:16:05;97769.16;;;4.08;100.00
13434;BME280;6789;47.678;9.158;2022-11-27T05:21:00;97763.47;;;4.13;100.00
13434;BME280;6789;47.678;9.158;2022-11-27T05:25:53;97771.31;;;4.28;100.00
13434;BME280;6789;47.678;9.158;2022-11-27T05:30:46;97784.59;;;4.25;100.00
13434;BME280;6789;47.678;9.158;2022-11-27T05:35:38;97786.38;;;4.17;100.00
13434;BME280;6789;47.678;9.158;2022-11-27T05:40:31;97779.25;;;4.19;100.00
13434;BME280;6789;47.678;9.158;2022-11-27T05:45:22;97780.72;;;4.22;100.00
13434;BME280;6789;47.678;9.158;2022-11-27T05:50:14;97777.81;;;4.24;100.00
13434;BME280;6789;47.678;9.158;2022-11-27T05:55:08;97783.47;;;4.20;100.00
13434;BME280;6789;47.678;9.158;2022-11-27T06:00:29;97780.72;;;4.29;100.00
13434;BME280;6789;47.678;9.158;2022-11-27T06:05:21;97776.00;;;4.09;100.00
13434;BME280;6789;47.678;9.158;2022-11-27T06:10:14;97775.47;;;4.14;100.00
13434;BME280;6789;47.678;9.158;2022-11-27T06:15:07;97762.38;;;4.31;100.00
13434;BME280;6789;47.678;9.158;2022-11-27T06:19:59;97766.75;;;4.22;100.00
13434;BME280;6789;47.678;9.158;2022-11-27T06:24:51;97759.13;;;4.29;100.00
13434;BME280;6789;47.678;9.158;2022-11-27T06:29:44;97771.97;;;4.38;100.00
13434;BME280;6789;47.678;9.158;2022-11-27T06:34:36;97768.38;;;4.23;100.00
13434;BME280;6789;47.678;9.158;2022-11-27T06:39:41;97775.34;;;4.23;100.00
13434;BME280;6789;47.678;9.158;2022-11-27T06:44:34;97785.88;;;4.14;100.00
13434;BME280;6789;47.678;9.158;2022-11-27T06:49:26;97781.16;;;4.01;100.00
13434;BME280;6789;47.678;9.158;2022-11-27T06:54:18;97791.16;;;3.88;100.00
13434;BME280;6789;47.678;9.158;2022-11-27T06:59:23;97789.22;;;3.98;100.00
13434;BME280;6789;47.678;9.158;2022-11-27T07:04:19;97784.88;;;4.07;100.00
13434;BME280;6789;47.678;9.158;2022-11-27T07:09:11;97773.22;;;4.11;100.00
13434;BME280;6789;47.678;9.158;2022-11-27T07:14:17;97773.56;;;4.16;100.00
13434;BME280;6789;47.678;9.158;2022-11-27T07:19:09;97771.00;;;4.23;100.00
13434;BME280;6789;47.678;9.158;2022-11-27T07:24:15;97767.59;;;4.47;100.00
13434;BME280;6789;47.678;9.158;2022-11-27T07:29:21;97757.19;;;4.31;100.00
13434;BME280;6789;47.678;9.158;2022-11-27T07:34:13;97754.13;;;4.35;100.00
13434;BME280;6789;47.678;9.158;2022-11-27T07:39:12;97745.66;;;4.25;100.00
13434;BME280;6789;47.678;9.158;2022-11-27T07:44:04;97755.41;;;4.31;100.00
13434;BME280;6789;47.678;9.158;2022-11-27T07:49:03;97752.78;;;4.16;100.00
13434;BME280;6789;47.678;9.158;2022-11-27T07:53:59;97762.69;;;4.12;100.00
13434;BME280;6789;47.678;9.158;2022-11-27T07:58:57;97761.25;;;4.18;100.00
13434;BME280;6789;47.678;9.158;2022-11-27T08:03:53;97761.09;;;4.27;100.00
13434;BME280;6789;47.678;9.158;2022-11-27T08:08:46;97747.81;;;4.38;100.00
13434;BME280;6789;47.678;9.158;2022-11-27T08:14:00;97745.06;;;4.47;100.00
13434;BME280;6789;47.678;9.158;2022-11-27T08:18:54;97733.06;;;4.54;100.00
13434;BME280;6789;47.678;9.158;2022-11-27T08:23:46;97732.72;;;4.65;100.00
13434;BME280;6789;47.678;9.158;2022-11-27T08:28:43;97715.16;;;4.75;100.00
13434;BME280;6789;47.678;9.158;2022-11-27T08:33:36;97702.16;;;4.83;100.00
13434;BME280;6789;47.678;9.158;2022-11-27T08:38:29;97705.75;;;4.90;100.00
13434;BME280;6789;47.678;9.158;2022-11-27T08:43:36;97710.25;;;5.04;100.00
13434;BME280;6789;47.678;9.158;2022-11-27T08:48:41;97734.59;;;5.19;100.00
13434;BME280;6789;47.678;9.158;2022-11-27T08:53:34;97761.91;;;5.15;100.00
13434;BME280;6789;47.678;9.158;2022-11-27T08:58:35;97758.63;;;5.21;100.00
13434;BME280;6789;47.678;9.158;2022-11-27T09:03:29;97753.25;;;5.30;100.00
13434;BME280;6789;47.678;9.158;2022-11-27T09:08:21;97734.25;;;5.22;100.00
13434;BME280;6789;47.678;9.158;2022-11-27T09:13:14;97731.69;;;5.14;100.00
13434;BME280;6789;47.678;9.158;2022-11-27T09:18:19;97735.72;;;5.16;100.00
13434;BME280;6789;47.678;9.158;2022-11-27T09:23:12;97737.03;;;5.20;100.00
13434;BME280;6789;47.678;9.158;2022-11-27T09:28:19;97735.38;;;5.27;100.00
13434;BME280;6789;47.678;9.158;2022-11-27T09:33:11;97727.56;;;5.27;100.00
13434;BME280;6789;47.678;9.158;2022-11-27T09:38:17;97736.50;;;5.41;100.00
13434;BME280;6789;47.678;9.158;2022-11-27T09:43:11;97721.47;;;5.51;100.00
13434;BME280;6789;47.678;9.158;2022-11-27T09:48:13;97712.44;;;5.31;100.00
13434;BME280;6789;47.678;9.158;2022-11-27T09:53:26;97695.44;;;5.59;100.00
13434;BME280;6789;47.678;9.158;2022-11-27T09:58:42;97691.66;;;5.69;100.00
13434;BME280;6789;47.678;9.158;2022-11-27T10:03:48;97694.28;;;5.61;100.00
13434;BME280;6789;47.678;9.158;2022-11-27T10:25:10;97657.56;;;5.64;100.00
13434;BME280;6789;47.678;9.158;2022-11-27T10:30:16;97661.88;;;5.71;99.39
13434;BME280;6789;47.678;9.158;2022-11-27T10:35:22;97661.84;;;6.10;97.11
13434;BME280;6789;47.678;9.158;2022-11-27T10:46:42;97648.25;;;6.00;94.81
13434;BME280;6789;47.678;9.158;2022-11-27T10:51:48;97640.94;;;5.95;94.44
13434;BME280;6789;47.678;9.158;2022-11-27T11:02:34;97621.59;;;6.35;91.95
13434;BME280;6789;47.678;9.158;2022-11-27T11:07:40;97607.22;;;6.90;88.55
13434;BME280;6789;47.678;9.158;2022-11-27T11:12:33;97596.69;;;7.12;87.68
13434;BME280;6789;47.678;9.158;2022-11-27T11:17:39;97588.47;;;7.29;86.00
13434;BME280;6789;47.678;9.158;2022-11-27T11:22:33;97589.56;;;7.20;84.97
13434;BME280;6789;47.678;9.158;2022-11-27T11:27:30;97565.47;;;7.54;85.25
13434;BME280;6789;47.678;9.158;2022-11-27T11:32:31;97565.13;;;7.42;84.10
13434;BME280;6789;47.678;9.158;2022-11-27T11:37:28;97576.44;;;7.14;84.71
13434;BME280;6789;47.678;9.158;2022-11-27T11:42:29;97559.19;;;7.48;84.29
13434;BME280;6789;47.678;9.158;2022-11-27T11:47:23;97551.94;;;7.29;86.67
13434;BME280;6789;47.678;9.158;2022-11-27T11:52:46;97531.38;;;6.85;90.69
13434;BME280;6789;47.678;9.158;2022-11-27T12:09:17;97525.06;;;6.36;93.43
13434;BME280;6789;47.678;9.158;2022-11-27T12:30:37;97489.75;;;6.34;93.27
13434;BME280;6789;47.678;9.158;2022-11-27T12:36:07;97487.91;;;5.91;95.62
13434;BME280;6789;47.678;9.158;2022-11-27T12:46:56;97469.88;;;5.67;97.71
13434;BME280;6789;47.678;9.158;2022-11-27T12:52:22;97449.78;;;6.12;97.12
13434;BME280;6789;47.678;9.158;2022-11-27T12:57:50;97461.34;;;5.81;97.30
13434;BME280;6789;47.678;9.158;2022-11-27T13:03:24;97453.00;;;5.85;98.16
13434;BME280;6789;47.678;9.158;2022-11-27T13:14:11;97422.88;;;6.20;96.39
13434;BME280;6789;47.678;9.158;2022-11-27T13:19:33;97425.94;;;6.23;96.37
13434;BME280;6789;47.678;9.158;2022-11-27T13:24:40;97429.16;;;6.25;95.99
13434;BME280;6789;47.678;9.158;2022-11-27T13:30:24;97430.56;;;5.84;97.52
13434;BME280;6789;47.678;9.158;2022-11-27T13:35:30;97407.44;;;5.67;98.90
13434;BME280;6789;47.678;9.158;2022-11-27T13:40:47;97405.81;;;6.03;97.28
13434;BME280;6789;47.678;9.158;2022-11-27T13:46:07;97403.91;;;6.11;96.87
13434;BME280;6789;47.678;9.158;2022-11-27T13:51:35;97366.13;;;5.86;97.35
13434;BME280;6789;47.678;9.158;2022-11-27T13:56:30;97378.06;;;5.81;97.67
13434;BME280;6789;47.678;9.158;2022-11-27T14:01:36;97367.75;;;5.87;97.69
13434;BME280;6789;47.678;9.158;2022-11-27T14:06:42;97354.41;;;5.76;98.69
13434;BME280;6789;47.678;9.158;2022-11-27T14:11:49;97341.31;;;5.62;99.22
13434;BME280;6789;47.678;9.158;2022-11-27T14:16:41;97336.69;;;5.71;99.83
13434;BME280;6789;47.678;9.158;2022-11-27T14:21:44;97341.47;;;5.82;99.69
13434;BME280;6789;47.678;9.158;2022-11-27T14:26:51;97355.97;;;5.77;100.00
13434;BME280;6789;47.678;9.158;2022-11-27T14:31:59;97356.31;;;5.74;99.78
13434;BME280;6789;47.678;9.158;2022-11-27T14:36:53;97347.88;;;5.72;100.00
13434;BME280;6789;47.678;9.158;2022-11-27T14:42:01;97343.56;;;5.64;100.00
13434;BME280;6789;47.678;9.158;2022-11-27T14:47:18;97330.13;;;5.61;100.00
13434;BME280;6789;47.678;9.158;2022-11-27T14:52:28;97319.53;;;5.48;100.00
13434;BME280;6789;47.678;9.158;2022-11-27T14:57:34;97305.88;;;5.46;100.00
13434;BME280;6789;47.678;9.158;2022-11-27T15:02:33;97288.03;;;5.29;100.00
13434;BME280;6789;47.678;9.158;2022-11-27T15:07:33;97288.03;;;5.29;100.00
13434;BME280;6789;47.678;9.158;2022-11-27T15:12:45;97275.91;;;5.07;100.00
13434;BME280;6789;47.678;9.158;2022-11-27T15:18:00;97273.09;;;4.94;100.00
13434;BME280;6789;47.678;9.158;2022-11-27T15:23:43;97276.78;;;4.99;100.00
13434;BME280;6789;47.678;9.158;2022-11-27T15:28:48;97269.09;;;5.06;100.00
13434;BME280;6789;47.678;9.158;2022-11-27T15:39:29;97262.19;;;5.13;100.00
13434;BME280;6789;47.678;9.158;2022-11-27T15:44:41;97247.50;;;5.20;100.00
13434;BME280;6789;47.678;9.158;2022-11-27T15:49:50;97237.28;;;5.04;100.00
13434;BME280;6789;47.678;9.158;2022-11-27T15:54:57;97238.81;;;5.13;100.00
13434;BME280;6789;47.678;9.158;2022-11-27T16:00:04;97230.22;;;5.12;100.00
13434;BME280;6789;47.678;9.158;2022-11-27T16:05:14;97223.31;;;5.05;100.00
13434;BME280;6789;47.678;9.158;2022-11-27T16:10:22;97217.03;;;4.99;100.00
13434;BME280;6789;47.678;9.158;2022-11-27T16:15:32;97210.47;;;5.03;100.00
13434;BME280;6789;47.678;9.158;2022-11-27T16:21:18;97198.72;;;4.93;100.00
13434;BME280;6789;47.678;9.158;2022-11-27T16:26:25;97202.47;;;4.76;100.00
13434;BME280;6789;47.678;9.158;2022-11-27T16:31:31;97202.75;;;4.81;100.00
13434;BME280;6789;47.678;9.158;2022-11-27T16:36:40;97185.84;;;4.85;100.00
13434;BME280;6789;47.678;9.158;2022-11-27T16:41:48;97178.84;;;5.00;100.00
13434;BME280;6789;47.678;9.158;2022-11-27T16:46:54;97175.97;;;4.95;100.00
13434;BME280;6789;47.678;9.158;2022-11-27T16:51:59;97171.59;;;4.95;100.00
13434;BME280;6789;47.678;9.158;2022-11-27T16:56:51;97164.34;;;4.91;100.00
13434;BME280;6789;47.678;9.158;2022-11-27T17:01:59;97159.13;;;4.91;100.00
13434;BME280;6789;47.678;9.158;2022-11-27T17:07:06;97162.91;;;5.03;100.00
13434;BME280;6789;47.678;9.158;2022-11-27T17:12:12;97154.13;;;5.04;100.00
13434;BME280;6789;47.678;9.158;2022-11-27T17:17:18;97144.53;;;5.04;100.00
13434;BME280;6789;47.678;9.158;2022-11-27T17:22:23;97136.38;;;4.93;100.00
13434;BME280;6789;47.678;9.158;2022-11-27T17:27:31;97132.00;;;4.93;100.00
13434;BME280;6789;47.678;9.158;2022-11-27T17:32:38;97121.06;;;4.84;100.00
13434;BME280;6789;47.678;9.158;2022-11-27T17:37:44;97108.25;;;4.82;100.00
13434;BME280;6789;47.678;9.158;2022-11-27T17:42:50;97100.44;;;4.82;100.00
13434;BME280;6789;47.678;9.158;2022-11-27T17:47:45;97105.91;;;4.87;100.00
13434;BME280;6789;47.678;9.158;2022-11-27T17:52:52;97090.31;;;4.87;100.00
13434;BME280;6789;47.678;9.158;2022-11-27T17:57:57;97087.38;;;4.90;100.00
13434;BME280;6789;47.678;9.158;2022-11-27T18:03:03;97085.69;;;4.97;100.00
13434;BME280;6789;47.678;9.158;2022-11-27T18:08:09;97084.50;;;4.99;100.00
13434;BME280;6789;47.678;9.158;2022-11-27T18:13:15;97084.69;;;4.98;100.00
13434;BME280;6789;47.678;9.158;2022-11-27T18:18:16;97083.06;;;4.97;100.00
13434;BME280;6789;47.678;9.158;2022-11-27T18:23:25;97076.53;;;5.01;100.00
13434;BME280;6789;47.678;9.158;2022-11-27T18:28:31;97077.84;;;5.11;100.00
13434;BME280;6789;47.678;9.158;2022-11-27T18:33:37;97054.56;;;5.03;100.00
13434;BME280;6789;47.678;9.158;2022-11-27T18:38:45;97049.38;;;5.03;100.00
13434;BME280;6789;47.678;9.158;2022-11-27T18:43:51;97038.97;;;5.03;100.00
13434;BME280;6789;47.678;9.158;2022-11-27T18:48:57;97043.81;;;5.06;100.00
13434;BME280;6789;47.678;9.158;2022-11-27T18:54:03;97054.50;;;4.97;100.00
13434;BME280;6789;47.678;9.158;2022-11-27T18:59:09;97035.69;;;4.95;100.00
13434;BME280;6789;47.678;9.158;2022-11-27T19:04:16;97032.09;;;4.96;100.00
13434;BME280;6789;47.678;9.158;2022-11-27T19:09:22;97021.69;;;4.96;100.00
13434;BME280;6789;47.678;9.158;2022-11-27T19:14:29;97021.06;;;4.94;100.00
13434;BME280;6789;47.678;9.158;2022-11-27T19:19:35;97016.50;;;4.96;100.00
13434;BME280;6789;47.678;9.158;2022-11-27T19:24:43;97022.59;;;5.03;100.00
13434;BME280;6789;47.678;9.158;2022-11-27T19:29:38;97020.78;;;5.03;100.00
13434;BME280;6789;47.678;9.158;2022-11-27T19:34:44;97000.69;;;5.12;100.00
13434;BME280;6789;47.678;9.158;2022-11-27T19:39:39;96992.63;;;5.07;100.00
13434;BME280;6789;47.678;9.158;2022-11-27T19:44:46;96986.22;;;5.03;100.00
13434;BME280;6789;47.678;9.158;2022-11-27T19:49:52;96973.84;;;5.05;100.00
13434;BME280;6789;47.678;9.158;2022-11-27T19:54:58;96975.44;;;5.06;100.00
13434;BME280;6789;47.678;9.158;2022-11-27T19:59:51;96964.59;;;5.02;100.00
13434;BME280;6789;47.678;9.158;2022-11-27T20:04:44;96959.25;;;5.04;100.00
13434;BME280;6789;47.678;9.158;2022-11-27T20:09:38;96949.63;;;5.04;100.00
13434;BME280;6789;47.678;9.158;2022-11-27T20:14:44;96938.13;;;4.93;100.00
13434;BME280;6789;47.678;9.158;2022-11-27T20:19:51;96931.69;;;4.89;100.00
13434;BME280;6789;47.678;9.158;2022-11-27T20:24:57;96945.44;;;5.03;100.00
13434;BME280;6789;47.678;9.158;2022-11-27T20:30:05;96938.31;;;5.12;100.00
13434;BME280;6789;47.678;9.158;2022-11-27T20:35:11;96932.88;;;5.07;100.00
13434;BME280;6789;47.678;9.158;2022-11-27T20:40:17;96924.34;;;4.92;100.00
13434;BME280;6789;47.678;9.158;2022-11-27T20:45:24;96907.44;;;4.82;100.00
13434;BME280;6789;47.678;9.158;2022-11-27T20:50:31;96910.53;;;4.71;100.00
13434;BME280;6789;47.678;9.158;2022-11-27T20:55:24;96908.28;;;4.68;100.00
13434;BME280;6789;47.678;9.158;2022-11-27T21:00:31;96909.44;;;4.65;100.00
13434;BME280;6789;47.678;9.158;2022-11-27T21:05:38;96912.41;;;4.62;100.00
13434;BME280;6789;47.678;9.158;2022-11-27T21:10:48;96894.97;;;4.56;100.00
13434;BME280;6789;47.678;9.158;2022-11-27T21:15:55;96893.00;;;4.58;100.00
13434;BME280;6789;47.678;9.158;2022-11-27T21:20:47;96872.91;;;4.67;100.00
13434;BME280;6789;47.678;9.158;2022-11-27T21:25:52;96862.66;;;4.59;100.00
13434;BME280;6789;47.678;9.158;2022-11-27T21:31:06;96867.84;;;4.59;100.00
13434;BME280;6789;47.678;9.158;2022-11-27T21:35:58;96854.44;;;4.55;100.00
13434;BME280;6789;47.678;9.158;2022-11-27T21:41:04;96860.59;;;4.54;100.00
13434;BME280;6789;47.678;9.158;2022-11-27T21:46:14;96862.56;;;4.52;100.00
13434;BME280;6789;47.678;9.158;2022-11-27T21:51:24;96862.56;;;4.52;100.00
13434;BME280;6789;47.678;9.158;2022-11-27T21:56:31;96847.44;;;4.56;100.00
13434;BME280;6789;47.678;9.158;2022-11-27T22:01:39;96861.66;;;4.60;100.00
13434;BME280;6789;47.678;9.158;2022-11-27T22:06:38;96860.13;;;4.65;100.00
13434;BME280;6789;47.678;9.158;2022-11-27T22:11:45;96864.25;;;4.81;100.00
13434;BME280;6789;47.678;9.158;2022-11-27T22:16:51;96854.88;;;4.80;100.00
13434;BME280;6789;47.678;9.158;2022-11-27T22:21:57;96850.50;;;4.80;100.00
13434;BME280;6789;47.678;9.158;2022-11-27T22:27:03;96840.47;;;4.77;100.00
13434;BME280;6789;47.678;9.158;2022-11-27T22:32:09;96830.50;;;4.81;100.00
13434;BME280;6789;47.678;9.158;2022-11-27T22:37:15;96821.28;;;4.78;100.00
13434;BME280;6789;47.678;9.158;2022-11-27T22:42:20;96817.72;;;4.79;100.00
13434;BME280;6789;47.678;9.158;2022-11-27T22:47:13;96804.66;;;4.73;100.00
13434;BME280;6789;47.678;9.158;2022-11-27T22:52:09;96802.75;;;4.60;100.00
13434;BME280;6789;47.678;9.158;2022-11-27T22:57:15;96795.47;;;4.49;100.00
13434;BME280;6789;47.678;9.158;2022-11-27T23:02:21;96796.06;;;4.51;100.00
13434;BME280;6789;47.678;9.158;2022-11-27T23:07:27;96794.72;;;4.55;100.00
13434;BME280;6789;47.678;9.158;2022-11-27T23:12:26;96779.50;;;4.52;100.00
13434;BME280;6789;47.678;9.158;2022-11-27T23:17:21;96741.38;;;4.32;100.00
13434;BME280;6789;47.678;9.158;2022-11-27T23:22:22;96747.59;;;4.37;100.00
13434;BME280;6789;47.678;9.158;2022-11-27T23:27:15;96769.97;;;4.59;100.00
13434;BME280;6789;47.678;9.158;2022-11-27T23:32:09;96755.06;;;4.68;100.00
13434;BME280;6789;47.678;9.158;2022-11-27T23:37:15;96766.63;;;4.86;100.00
13434;BME280;6789;47.678;9.158;2022-11-27T23:42:21;96761.44;;;4.86;100.00
13434;BME280;6789;47.678;9.158;2022-11-27T23:47:13;96771.81;;;4.86;100.00
13434;BME280;6789;47.678;9.158;2022-11-27T23:52:05;96763.88;;;4.94;100.00
13434;BME280;6789;47.678;9.158;2022-11-27T23:57:08;96758.44;;;4.89;100.00
